Time;durP1;ratioP1;P1;durP2;ratioP2;P2;SDS_P1;SDS_P2;PMS_P1;PMS_P2;Temp;Humidity;BMP_temperature;BMP_pressure;BME280_temperature;BME280_humidity;BME280_pressure;Samples;Min_cycle;Max_cycle;Signal;HPM_P1;HPM_P2
2024/01/17 00:02:04;;;;;;;4.43;3.83;;;7.10;83.10;;;;;;6155073;23;20041;-77
2024/01/17 00:04:30;;;;;;;5.07;3.78;;;7.10;83.10;;;;;;6150570;23;20013;-76
2024/01/17 00:06:57;;;;;;;4.60;3.55;;;7.10;82.90;;;;;;6126454;23;20428;-77
2024/01/17 00:09:23;;;;;;;5.25;3.90;;;7.10;83.30;;;;;;6152198;23;20190;-76
2024/01/17 00:11:52;;;;;;;4.45;3.70;;;7.10;82.90;;;;;;6152430;23;20029;-77
2024/01/17 00:14:18;;;;;;;5.68;4.10;;;7.10;81.80;;;;;;6151069;23;20029;-76
2024/01/17 00:16:44;;;;;;;4.78;3.75;;;7.10;82.50;;;;;;6152260;23;20013;-78
2024/01/17 00:19:10;;;;;;;5.30;3.78;;;7.10;82.70;;;;;;6151700;23;20013;-78
2024/01/17 00:21:37;;;;;;;5.38;3.90;;;7.00;82.80;;;;;;6152307;23;20009;-78
2024/01/17 00:24:03;;;;;;;5.32;3.95;;;7.00;81.50;;;;;;6101509;23;20022;-78
2024/01/17 00:26:29;;;;;;;5.35;3.85;;;7.00;82.10;;;;;;6154204;23;20468;-77
2024/01/17 00:28:56;;;;;;;4.45;3.58;;;7.00;81.70;;;;;;6125601;23;20100;-77
2024/01/17 00:31:22;;;;;;;4.63;3.80;;;7.00;81.20;;;;;;6145365;23;20013;-77
2024/01/17 00:33:48;;;;;;;4.32;3.20;;;7.00;81.40;;;;;;6152358;23;20005;-77
2024/01/17 00:36:14;;;;;;;4.20;3.53;;;7.00;81.60;;;;;;6125531;23;20479;-78
2024/01/17 00:38:41;;;;;;;5.38;3.80;;;7.00;81.60;;;;;;6151446;23;20485;-78
2024/01/17 00:41:07;;;;;;;5.47;3.85;;;7.00;81.50;;;;;;6126826;23;20349;-76
2024/01/17 00:43:33;;;;;;;4.90;4.00;;;7.00;81.40;;;;;;6152316;23;20084;-78
2024/01/17 00:45:59;;;;;;;4.07;3.65;;;7.00;81.70;;;;;;6152807;23;20009;-79
2024/01/17 00:48:26;;;;;;;4.28;3.60;;;7.00;81.50;;;;;;6153041;23;20017;-77
2024/01/17 00:50:51;;;;;;;5.47;3.95;;;6.90;81.60;;;;;;6152512;23;20561;-79
2024/01/17 00:53:17;;;;;;;4.03;3.30;;;6.90;81.80;;;;;;6151752;23;20033;-77
2024/01/17 00:55:44;;;;;;;5.22;3.80;;;6.90;81.70;;;;;;6151678;23;20527;-77
2024/01/17 00:58:10;;;;;;;4.38;3.47;;;6.90;81.70;;;;;;6125655;23;20013;-78
2024/01/17 01:00:36;;;;;;;4.88;4.00;;;6.90;81.60;;;;;;6152573;23;20013;-78
2024/01/17 01:03:02;;;;;;;4.93;3.60;;;6.90;81.80;;;;;;6152303;23;20025;-76
2024/01/17 01:05:28;;;;;;;4.03;3.50;;;6.90;81.40;;;;;;6125463;23;20102;-77
2024/01/17 01:07:54;;;;;;;4.57;3.70;;;6.90;81.60;;;;;;6151396;23;20024;-77
2024/01/17 01:10:20;;;;;;;4.53;3.55;;;6.90;81.70;;;;;;6125735;23;20352;-77
2024/01/17 01:12:46;;;;;;;4.63;3.75;;;6.90;80.70;;;;;;6151146;23;20010;-77
2024/01/17 01:15:12;;;;;;;5.60;3.97;;;6.90;81.40;;;;;;6151975;23;20567;-78
2024/01/17 01:17:39;;;;;;;4.45;3.50;;;6.90;81.60;;;;;;6152044;23;20048;-78
2024/01/17 01:20:07;;;;;;;5.05;3.55;;;6.90;82.00;;;;;;6125486;23;20075;-77
2024/01/17 01:22:36;;;;;;;7.15;4.20;;;6.90;82.00;;;;;;6150449;23;20021;-77
2024/01/17 01:25:02;;;;;;;4.38;3.50;;;6.90;81.10;;;;;;6126383;23;20345;-78
2024/01/17 01:27:29;;;;;;;5.70;4.15;;;6.90;82.30;;;;;;6151740;23;20360;-78
2024/01/17 01:29:55;;;;;;;5.22;3.80;;;6.90;81.10;;;;;;6151453;23;20037;-76
2024/01/17 01:32:21;;;;;;;4.93;3.75;;;6.90;81.30;;;;;;6157712;23;20017;-77
2024/01/17 01:34:47;;;;;;;6.85;4.22;;;6.90;81.60;;;;;;6153584;23;20083;-77
2024/01/17 01:37:13;;;;;;;6.43;4.30;;;6.80;80.30;;;;;;6124707;23;20009;-77
2024/01/17 01:39:40;;;;;;;5.80;4.40;;;6.80;80.90;;;;;;6125416;23;20642;-76
2024/01/17 01:42:06;;;;;;;5.80;4.40;;;6.80;80.00;;;;;;6152747;23;20099;-78
2024/01/17 01:44:32;;;;;;;6.18;4.43;;;6.80;79.20;;;;;;6150772;23;20021;-78
2024/01/17 01:46:59;;;;;;;7.50;4.57;;;6.80;79.40;;;;;;6151160;23;20469;-78
2024/01/17 01:49:25;;;;;;;7.65;4.80;;;6.80;78.70;;;;;;6151224;23;20037;-77
2024/01/17 01:51:53;;;;;;;7.70;4.93;;;6.80;79.60;;;;;;6152050;23;20010;-76
2024/01/17 01:54:22;;;;;;;8.32;5.07;;;6.80;78.80;;;;;;6124820;23;20076;-77
2024/01/17 01:56:50;;;;;;;7.60;5.38;;;6.80;79.20;;;;;;6151821;23;20348;-78
2024/01/17 01:59:19;;;;;;;8.05;5.65;;;6.80;79.50;;;;;;6149680;23;20108;-77
2024/01/17 02:01:47;;;;;;;8.00;5.47;;;6.80;79.60;;;;;;6151517;23;20415;-77
2024/01/17 02:04:15;;;;;;;9.43;5.03;;;6.70;78.90;;;;;;6151612;23;20010;-77
2024/01/17 02:06:43;;;;;;;10.90;5.22;;;6.80;79.20;;;;;;6126119;23;20005;-77
2024/01/17 02:09:09;;;;;;;6.93;5.22;;;6.70;79.00;;;;;;6150865;23;20021;-77
2024/01/17 02:11:37;;;;;;;6.93;4.85;;;6.70;79.50;;;;;;6150750;23;20073;-77
2024/01/17 02:14:03;;;;;;;7.60;5.15;;;6.70;79.10;;;;;;6125007;23;20036;-77
2024/01/17 02:16:29;;;;;;;8.27;4.65;;;6.70;78.60;;;;;;6151215;23;20021;-77
2024/01/17 02:18:55;;;;;;;8.88;5.10;;;6.70;79.70;;;;;;6151261;23;20009;-77
2024/01/17 02:21:22;;;;;;;7.95;4.93;;;6.70;79.50;;;;;;6150643;23;20105;-79
2024/01/17 02:23:51;;;;;;;6.95;4.45;;;6.70;79.10;;;;;;6151357;23;20067;-78
2024/01/17 02:26:18;;;;;;;7.50;4.82;;;6.70;78.90;;;;;;6151088;23;20025;-78
2024/01/17 02:28:44;;;;;;;6.80;4.90;;;6.70;78.80;;;;;;6152172;23;20024;-78
2024/01/17 02:31:12;;;;;;;9.40;4.65;;;6.70;79.40;;;;;;6152740;23;20010;-77
2024/01/17 02:33:38;;;;;;;6.43;4.85;;;6.70;79.00;;;;;;6152682;23;20032;-79
2024/01/17 02:36:04;;;;;;;6.75;4.53;;;6.70;79.30;;;;;;6154200;23;20025;-77
2024/01/17 02:38:30;;;;;;;7.63;4.85;;;6.70;78.40;;;;;;6156028;23;20148;-76
2024/01/17 02:40:56;;;;;;;7.65;5.03;;;6.60;78.90;;;;;;6127564;23;20452;-78
2024/01/17 02:43:23;;;;;;;7.60;4.43;;;6.60;78.90;;;;;;6154077;23;20067;-77
2024/01/17 02:45:49;;;;;;;9.02;5.25;;;6.60;79.00;;;;;;6154794;23;20092;-78
2024/01/17 02:48:15;;;;;;;7.53;5.38;;;6.60;78.90;;;;;;6153312;23;20501;-78
2024/01/17 02:50:41;;;;;;;8.65;5.13;;;6.60;78.70;;;;;;6103128;23;20049;-78
2024/01/17 02:53:07;;;;;;;8.85;5.50;;;6.60;78.60;;;;;;6153671;23;20018;-78
2024/01/17 02:55:33;;;;;;;7.72;5.05;;;6.60;78.50;;;;;;6126202;23;20032;-78
2024/01/17 02:58:01;;;;;;;8.52;5.10;;;6.60;78.30;;;;;;6127814;23;20064;-78
2024/01/17 03:00:27;;;;;;;8.85;5.28;;;6.50;78.20;;;;;;6102377;23;20370;-77
2024/01/17 03:02:54;;;;;;;7.53;4.82;;;6.50;78.30;;;;;;6155214;23;20017;-77
2024/01/17 03:05:20;;;;;;;6.93;4.75;;;6.50;78.40;;;;;;6158321;23;20080;-77
2024/01/17 03:07:46;;;;;;;7.80;5.25;;;6.60;78.50;;;;;;6152775;23;20021;-78
2024/01/17 03:10:13;;;;;;;9.38;5.18;;;6.50;77.50;;;;;;6152373;23;20017;-77
2024/01/17 03:12:40;;;;;;;6.57;4.82;;;6.50;77.90;;;;;;6153420;23;20429;-77
2024/01/17 03:15:07;;;;;;;7.03;4.68;;;6.50;77.90;;;;;;6152355;23;20089;-77
2024/01/17 03:17:36;;;;;;;7.20;4.97;;;6.50;77.90;;;;;;6101014;23;20021;-79
2024/01/17 03:20:03;;;;;;;8.45;5.65;;;6.50;77.30;;;;;;6152284;23;20080;-77
2024/01/17 03:22:29;;;;;;;6.55;4.88;;;6.50;77.50;;;;;;6155396;23;20092;-77
2024/01/17 03:24:55;;;;;;;8.45;5.30;;;6.50;77.60;;;;;;6151433;23;20021;-78
2024/01/17 03:27:21;;;;;;;8.02;5.15;;;6.50;77.30;;;;;;6126923;23;20053;-77
2024/01/17 03:29:51;;;;;;;9.15;5.45;;;6.50;77.40;;;;;;6152597;23;20025;-77
2024/01/17 03:32:17;;;;;;;8.73;5.53;;;6.50;77.40;;;;;;6127117;23;20049;-76
2024/01/17 03:34:43;;;;;;;8.70;5.22;;;6.50;77.50;;;;;;6153247;23;20109;-77
2024/01/17 03:37:09;;;;;;;8.73;5.00;;;6.40;76.90;;;;;;6152995;23;20041;-77
2024/01/17 03:39:35;;;;;;;8.63;5.13;;;6.40;76.80;;;;;;6102607;23;20027;-78
2024/01/17 03:42:01;;;;;;;7.40;4.90;;;6.40;76.90;;;;;;6078196;23;20026;-78
2024/01/17 03:44:27;;;;;;;6.60;4.43;;;6.40;77.00;;;;;;6126644;23;20048;-78
2024/01/17 03:46:53;;;;;;;5.70;4.47;;;6.40;77.00;;;;;;6151878;23;20100;-79
2024/01/17 03:49:19;;;;;;;7.25;5.03;;;6.40;75.90;;;;;;6152598;23;20033;-78
2024/01/17 03:51:45;;;;;;;6.25;4.30;;;6.40;76.70;;;;;;6153217;23;20080;-78
2024/01/17 03:54:11;;;;;;;9.23;4.90;;;6.40;77.50;;;;;;6151878;23;20364;-78
2024/01/17 03:56:37;;;;;;;7.80;4.20;;;6.40;78.60;;;;;;6152437;23;20025;-79
2024/01/17 03:59:05;;;;;;;6.53;4.13;;;6.40;79.20;;;;;;6152614;23;20033;-78
2024/01/17 04:01:31;;;;;;;7.72;4.50;;;6.40;79.20;;;;;;6152722;23;20013;-76
2024/01/17 04:03:57;;;;;;;7.78;4.28;;;6.40;78.90;;;;;;6152962;23;20009;-78
2024/01/17 04:06:25;;;;;;;6.18;4.13;;;6.40;79.00;;;;;;6152941;23;20076;-78
2024/01/17 04:08:51;;;;;;;7.82;4.78;;;6.40;79.10;;;;;;6102159;23;20023;-78
2024/01/17 04:11:17;;;;;;;5.20;4.25;;;6.40;78.60;;;;;;6153849;23;20476;-78
2024/01/17 04:13:44;;;;;;;6.38;4.13;;;6.40;78.90;;;;;;6153192;23;20018;-78
2024/01/17 04:16:11;;;;;;;7.13;4.25;;;6.40;78.30;;;;;;6101849;23;20457;-78
2024/01/17 04:18:37;;;;;;;9.05;5.13;;;6.40;79.10;;;;;;6125330;23;20147;-77
2024/01/17 04:21:03;;;;;;;7.32;5.00;;;6.40;78.50;;;;;;6149286;23;20017;-78
2024/01/17 04:23:29;;;;;;;5.82;4.50;;;6.40;78.90;;;;;;6149448;23;20017;-77
2024/01/17 04:25:55;;;;;;;7.57;4.75;;;6.30;78.60;;;;;;6150406;23;20013;-77
2024/01/17 04:28:22;;;;;;;7.30;4.20;;;6.40;78.20;;;;;;6124018;23;20016;-77
2024/01/17 04:30:49;;;;;;;7.72;4.20;;;6.30;78.90;;;;;;6149158;23;20016;-77
2024/01/17 04:33:16;;;;;;;6.80;4.43;;;6.30;78.60;;;;;;6124970;23;20068;-78
2024/01/17 04:35:42;;;;;;;6.47;4.15;;;6.30;78.40;;;;;;6125928;23;20025;-78
2024/01/17 04:38:08;;;;;;;7.43;4.18;;;6.30;78.20;;;;;;6150241;23;20044;-79
2024/01/17 04:40:34;;;;;;;7.35;4.25;;;6.30;78.00;;;;;;6151276;23;20071;-84
2024/01/17 04:43:00;;;;;;;6.45;4.50;;;6.30;77.70;;;;;;6129408;23;20071;-87
2024/01/17 04:45:27;;;;;;;8.90;4.82;;;6.30;77.90;;;;;;6152331;23;20021;-88
2024/01/17 04:47:53;;;;;;;7.82;4.20;;;6.30;78.00;;;;;;6152489;23;20108;-83
2024/01/17 04:50:19;;;;;;;8.23;4.97;;;6.20;78.60;;;;;;6125054;23;20056;-85
2024/01/17 04:52:45;;;;;;;7.82;5.00;;;6.30;78.00;;;;;;6126077;23;20100;-83
2024/01/17 04:55:13;;;;;;;9.52;4.88;;;6.30;78.20;;;;;;6152393;23;20592;-83
2024/01/17 04:57:39;;;;;;;6.75;4.40;;;6.30;79.20;;;;;;6152829;23;20001;-82
2024/01/17 05:00:06;;;;;;;7.65;4.85;;;6.30;79.30;;;;;;6152008;23;20017;-82
2024/01/17 05:02:32;;;;;;;8.57;4.60;;;6.20;79.60;;;;;;6150090;23;20021;-81
2024/01/17 05:04:58;;;;;;;9.90;5.07;;;6.20;79.50;;;;;;6125457;23;20021;-83
2024/01/17 05:07:24;;;;;;;9.02;5.43;;;6.20;79.60;;;;;;6149766;23;20041;-84
2024/01/17 05:09:50;;;;;;;8.38;5.47;;;6.20;79.90;;;;;;6152167;23;20009;-83
2024/01/17 05:12:16;;;;;;;8.80;5.20;;;6.20;80.40;;;;;;6151558;23;20025;-83
2024/01/17 05:14:43;;;;;;;8.02;5.05;;;6.20;80.70;;;;;;6151295;23;20117;-83
2024/01/17 05:17:09;;;;;;;6.03;4.35;;;6.20;80.70;;;;;;6126313;23;20013;-83
2024/01/17 05:19:35;;;;;;;9.13;5.65;;;6.20;80.90;;;;;;6124622;23;20025;-83
2024/01/17 05:22:01;;;;;;;8.43;4.90;;;6.20;81.20;;;;;;6151839;23;20020;-84
2024/01/17 05:24:27;;;;;;;8.07;5.25;;;6.20;81.30;;;;;;6150698;23;20021;-81
2024/01/17 05:26:53;;;;;;;9.55;4.60;;;6.20;81.60;;;;;;6150196;23;20080;-81
2024/01/17 05:29:19;;;;;;;7.82;4.85;;;6.20;81.40;;;;;;6124575;23;20513;-83
2024/01/17 05:31:45;;;;;;;9.43;5.40;;;6.20;81.20;;;;;;6156430;23;20026;-83
2024/01/17 05:34:11;;;;;;;10.48;5.43;;;6.20;80.80;;;;;;6152205;23;20013;-81
2024/01/17 05:36:37;;;;;;;7.50;4.93;;;6.20;81.20;;;;;;6151181;23;20052;-83
2024/01/17 05:39:04;;;;;;;9.23;4.97;;;6.10;81.10;;;;;;6151120;23;20026;-80
2024/01/17 05:41:30;;;;;;;8.82;5.28;;;6.10;80.60;;;;;;6151424;23;20022;-79
2024/01/17 05:43:56;;;;;;;9.35;4.78;;;6.10;80.40;;;;;;6150982;23;20100;-81
2024/01/17 05:46:22;;;;;;;9.38;5.80;;;6.10;80.70;;;;;;6151068;23;20020;-79
2024/01/17 05:48:48;;;;;;;7.78;4.47;;;6.10;80.50;;;;;;6150680;23;20018;-79
2024/01/17 05:51:15;;;;;;;7.97;4.65;;;6.10;80.30;;;;;;6151661;23;20026;-79
2024/01/17 05:53:41;;;;;;;8.90;4.75;;;6.10;80.00;;;;;;6124811;23;20037;-80
2024/01/17 05:56:07;;;;;;;6.35;4.13;;;6.10;79.70;;;;;;6124293;23;20021;-77
2024/01/17 05:58:34;;;;;;;7.85;5.00;;;6.10;79.70;;;;;;6150689;23;20403;-80
2024/01/17 06:01:00;;;;;;;8.13;5.05;;;6.10;79.90;;;;;;6152414;23;20381;-78
2024/01/17 06:03:26;;;;;;;7.32;5.03;;;6.10;79.40;;;;;;6126311;23;20052;-81
2024/01/17 06:05:53;;;;;;;9.45;4.80;;;6.10;79.70;;;;;;6153725;23;20409;-78
2024/01/17 06:08:20;;;;;;;9.10;4.82;;;6.10;79.90;;;;;;6154223;23;20064;-78
2024/01/17 06:10:46;;;;;;;6.13;4.22;;;6.10;80.00;;;;;;6152906;23;20014;-78
2024/01/17 06:13:12;;;;;;;6.95;5.00;;;6.10;80.90;;;;;;6153219;23;20093;-78
2024/01/17 06:15:37;;;;;;;7.13;4.60;;;6.10;80.60;;;;;;6153908;23;20013;-78
2024/01/17 06:18:04;;;;;;;7.90;4.70;;;6.10;80.60;;;;;;6151965;23;20040;-78
2024/01/17 06:20:30;;;;;;;8.18;5.00;;;6.10;80.40;;;;;;6152950;23;20365;-79
2024/01/17 06:22:56;;;;;;;8.80;5.32;;;6.10;80.20;;;;;;6126789;23;20020;-79
2024/01/17 06:25:22;;;;;;;8.57;4.80;;;6.00;80.30;;;;;;6127467;23;20017;-78
2024/01/17 06:27:48;;;;;;;8.77;5.05;;;6.00;80.70;;;;;;6154137;23;20009;-79
2024/01/17 06:30:15;;;;;;;7.90;5.20;;;6.00;80.10;;;;;;6152913;23;20076;-79
2024/01/17 06:32:41;;;;;;;7.65;4.47;;;6.00;79.60;;;;;;6127962;23;20535;-79
2024/01/17 06:35:10;;;;;;;7.72;5.03;;;6.00;79.30;;;;;;6153308;23;20100;-80
2024/01/17 06:37:36;;;;;;;8.63;5.03;;;6.00;79.30;;;;;;6153360;23;20032;-80
2024/01/17 06:40:02;;;;;;;7.43;4.63;;;6.00;79.60;;;;;;6127707;23;20453;-80
2024/01/17 06:42:28;;;;;;;7.55;4.55;;;6.00;79.40;;;;;;6153293;23;20021;-80
2024/01/17 06:44:54;;;;;;;6.65;4.53;;;6.00;80.10;;;;;;6127193;23;20048;-80
2024/01/17 06:47:20;;;;;;;6.05;4.05;;;6.00;80.50;;;;;;6126910;23;20022;-80
2024/01/17 06:49:46;;;;;;;7.20;4.25;;;6.00;80.50;;;;;;6153181;23;20071;-79
2024/01/17 06:52:12;;;;;;;5.35;4.00;;;6.00;80.50;;;;;;6152982;23;20072;-79
2024/01/17 06:54:38;;;;;;;7.65;4.63;;;6.00;80.80;;;;;;6152246;23;20338;-79
2024/01/17 06:57:07;;;;;;;8.68;5.18;;;6.00;80.70;;;;;;6152842;23;20021;-79
2024/01/17 06:59:33;;;;;;;6.13;4.45;;;6.00;80.00;;;;;;6153148;23;20505;-80
2024/01/17 07:01:59;;;;;;;7.97;4.20;;;6.00;80.10;;;;;;6126855;23;20040;-80
2024/01/17 07:04:25;;;;;;;6.65;4.20;;;6.00;79.80;;;;;;6152857;23;20093;-79
2024/01/17 07:06:51;;;;;;;6.20;3.92;;;6.00;79.40;;;;;;6103276;23;20033;-78
2024/01/17 07:09:17;;;;;;;8.30;4.90;;;6.00;78.80;;;;;;6151579;23;20037;-78
2024/01/17 07:11:43;;;;;;;6.00;4.32;;;6.00;78.60;;;;;;6152787;23;20022;-80
2024/01/17 07:14:09;;;;;;;9.05;5.05;;;6.00;78.40;;;;;;6152467;23;20018;-80
2024/01/17 07:16:35;;;;;;;7.25;4.50;;;6.00;78.30;;;;;;6152217;23;20025;-79
2024/01/17 07:19:01;;;;;;;6.25;4.18;;;6.00;78.30;;;;;;6153142;23;20013;-80
2024/01/17 07:21:27;;;;;;;7.47;4.32;;;6.00;77.80;;;;;;6152300;23;20028;-78
2024/01/17 07:23:53;;;;;;;6.63;4.13;;;6.00;78.50;;;;;;6126239;23;20064;-79
2024/01/17 07:26:20;;;;;;;6.35;4.30;;;6.00;77.90;;;;;;6126923;23;20026;-78
2024/01/17 07:28:46;;;;;;;7.85;4.13;;;6.00;77.80;;;;;;6152104;23;20018;-79
2024/01/17 07:31:12;;;;;;;8.93;3.90;;;5.90;78.10;;;;;;6152137;23;20013;-77
2024/01/17 07:33:38;;;;;;;5.90;3.85;;;5.90;77.90;;;;;;6152596;23;20016;-78
2024/01/17 07:36:05;;;;;;;5.90;3.78;;;5.90;77.70;;;;;;6148409;23;20021;-78
2024/01/17 07:38:31;;;;;;;6.75;3.65;;;5.90;77.20;;;;;;6152293;23;20021;-78
2024/01/17 07:41:15;;;;;;;5.38;3.40;;;5.90;77.10;;;;;;6150567;23;20020;-79
2024/01/17 07:43:41;;;;;;;5.75;3.42;;;5.90;77.20;;;;;;6152715;23;20021;-79
2024/01/17 07:46:07;;;;;;;6.72;3.30;;;5.90;77.20;;;;;;6152381;23;20096;-76
2024/01/17 07:48:33;;;;;;;6.07;3.13;;;5.90;77.00;;;;;;6126739;23;20427;-78
2024/01/17 07:51:00;;;;;;;4.70;3.22;;;5.90;76.50;;;;;;6125971;23;20118;-77
2024/01/17 07:53:26;;;;;;;5.00;2.90;;;5.90;76.60;;;;;;6153925;23;20075;-79
2024/01/17 07:55:53;;;;;;;4.60;3.22;;;5.90;76.30;;;;;;6126100;23;20120;-77
2024/01/17 07:58:20;;;;;;;5.00;3.20;;;5.90;76.50;;;;;;6152255;23;20047;-79
2024/01/17 08:00:47;;;;;;;4.38;2.55;;;5.90;76.50;;;;;;6152391;23;20041;-79
2024/01/17 08:03:13;;;;;;;6.10;3.15;;;5.90;76.80;;;;;;6075293;23;20033;-78
2024/01/17 08:05:39;;;;;;;4.10;2.88;;;5.90;76.20;;;;;;6148978;23;20080;-79
2024/01/17 08:08:06;;;;;;;4.55;2.83;;;5.90;76.10;;;;;;6149874;23;20071;-79
2024/01/17 08:10:32;;;;;;;4.03;3.00;;;5.90;76.00;;;;;;6148770;23;20020;-79
2024/01/17 08:12:58;;;;;;;3.78;2.72;;;5.90;76.10;;;;;;6149839;23;20016;-79
2024/01/17 08:15:24;;;;;;;4.95;3.38;;;5.90;75.80;;;;;;6149166;23;20021;-80
2024/01/17 08:17:50;;;;;;;4.30;2.88;;;5.90;75.80;;;;;;6148455;23;20615;-79
2024/01/17 08:20:16;;;;;;;3.80;2.83;;;5.90;75.70;;;;;;6146658;23;20576;-79
2024/01/17 08:22:43;;;;;;;6.43;3.30;;;5.90;75.80;;;;;;6123686;23;20068;-79
2024/01/17 08:25:09;;;;;;;4.40;2.97;;;5.90;75.50;;;;;;6148343;23;20041;-78
2024/01/17 08:27:36;;;;;;;4.07;2.85;;;5.90;75.60;;;;;;6148278;23;20322;-79
2024/01/17 08:30:09;;;;;;;4.05;3.00;;;5.90;75.50;;;;;;6149146;23;20461;-79
2024/01/17 08:32:36;;;;;;;4.43;3.20;;;5.90;75.50;;;;;;6146218;23;20503;-79
2024/01/17 08:35:02;;;;;;;5.95;2.72;;;5.90;75.90;;;;;;6123496;23;20021;-79
2024/01/17 08:37:29;;;;;;;3.50;3.13;;;5.90;75.50;;;;;;6121134;23;20106;-79
2024/01/17 08:39:55;;;;;;;4.90;2.90;;;5.90;75.40;;;;;;6148525;23;20044;-79
2024/01/17 08:42:21;;;;;;;5.97;3.30;;;5.90;75.10;;;;;;6146988;23;20048;-78
2024/01/17 08:44:47;;;;;;;3.63;3.00;;;5.90;75.30;;;;;;6122059;23;20021;-79
2024/01/17 08:47:14;;;;;;;3.03;2.70;;;5.90;75.50;;;;;;6146423;23;20021;-79
2024/01/17 08:49:40;;;;;;;5.72;2.97;;;5.90;75.20;;;;;;6122251;23;20055;-79
2024/01/17 08:52:07;;;;;;;4.25;2.90;;;5.90;74.90;;;;;;6123282;23;20021;-79
2024/01/17 08:54:37;;;;;;;4.40;2.92;;;5.90;75.40;;;;;;6148162;23;20029;-78
2024/01/17 08:57:03;;;;;;;4.10;2.90;;;5.90;75.00;;;;;;6147963;23;20465;-79
2024/01/17 08:59:33;;;;;;;5.30;3.13;;;5.90;75.10;;;;;;6146175;23;20021;-79
2024/01/17 09:01:59;;;;;;;4.05;2.90;;;5.90;74.80;;;;;;6146695;23;20017;-79
2024/01/17 09:04:25;;;;;;;4.22;2.60;;;5.90;75.10;;;;;;6148022;23;20013;-79
2024/01/17 09:06:51;;;;;;;5.40;3.05;;;6.00;74.80;;;;;;6149256;23;20013;-79
2024/01/17 09:09:17;;;;;;;4.85;2.90;;;6.00;74.50;;;;;;6148094;23;20068;-78
2024/01/17 09:11:43;;;;;;;4.45;3.17;;;5.90;74.50;;;;;;6147835;23;20027;-80
2024/01/17 09:14:10;;;;;;;3.55;2.85;;;6.00;74.50;;;;;;6148031;23;20125;-79
2024/01/17 09:16:36;;;;;;;4.95;3.20;;;6.00;74.40;;;;;;6147700;23;20691;-79
2024/01/17 09:19:02;;;;;;;5.15;3.05;;;5.90;74.10;;;;;;6148921;23;20018;-78
2024/01/17 09:21:29;;;;;;;4.45;2.92;;;6.00;74.30;;;;;;6147670;23;20033;-79
2024/01/17 09:23:55;;;;;;;3.65;2.78;;;6.00;74.20;;;;;;6148127;23;20021;-78
2024/01/17 09:26:21;;;;;;;5.55;3.17;;;6.00;74.50;;;;;;6147694;23;20033;-79
2024/01/17 09:28:47;;;;;;;4.28;2.95;;;6.00;74.50;;;;;;6146492;23;20499;-78
2024/01/17 09:31:14;;;;;;;3.67;2.83;;;6.00;74.40;;;;;;6146811;23;20029;-78
2024/01/17 09:33:40;;;;;;;5.03;3.20;;;6.00;74.50;;;;;;6149411;23;20013;-79
2024/01/17 09:36:06;;;;;;;4.63;2.85;;;6.00;74.40;;;;;;6148580;23;20021;-78
2024/01/17 09:38:32;;;;;;;3.92;2.70;;;6.00;74.60;;;;;;6148686;23;20021;-78
2024/01/17 09:40:58;;;;;;;4.45;2.90;;;6.00;74.60;;;;;;6144753;23;20048;-78
2024/01/17 09:43:25;;;;;;;4.30;3.25;;;6.00;74.50;;;;;;6145105;23;20016;-78
2024/01/17 09:45:55;;;;;;;3.47;2.75;;;6.00;74.80;;;;;;6147279;23;20013;-78
2024/01/17 09:48:26;;;;;;;4.35;2.80;;;6.00;74.30;;;;;;6146752;23;20022;-78
2024/01/17 09:50:53;;;;;;;4.05;2.90;;;6.00;74.80;;;;;;6147118;23;20032;-78
2024/01/17 09:53:27;;;;;;;4.22;3.13;;;6.00;74.70;;;;;;6147144;23;20452;-77
2024/01/17 09:55:55;;;;;;;3.75;3.17;;;6.00;74.00;;;;;;6121574;23;20033;-78
2024/01/17 09:58:22;;;;;;;3.47;2.50;;;6.00;73.60;;;;;;6122329;23;20096;-78
2024/01/17 10:00:49;;;;;;;4.22;3.05;;;6.00;73.40;;;;;;6121687;23;20010;-78
2024/01/17 10:03:20;;;;;;;3.65;2.80;;;6.00;74.10;;;;;;6148785;23;20338;-78
2024/01/17 10:05:50;;;;;;;4.97;3.15;;;6.00;73.70;;;;;;6148161;23;20017;-78
2024/01/17 10:08:18;;;;;;;5.13;3.10;;;6.00;73.60;;;;;;6148454;23;20345;-78
2024/01/17 10:10:44;;;;;;;4.95;3.40;;;6.00;74.00;;;;;;6122424;23;20341;-79
2024/01/17 10:13:11;;;;;;;5.30;3.55;;;6.00;73.30;;;;;;6149163;23;20017;-77
2024/01/17 10:15:45;;;;;;;4.65;3.30;;;6.00;73.20;;;;;;6150443;23;20454;-78
2024/01/17 10:18:12;;;;;;;5.32;3.15;;;6.00;73.50;;;;;;6148742;23;20022;-78
2024/01/17 10:20:38;;;;;;;3.45;2.80;;;6.00;73.50;;;;;;6151237;23;20018;-78
2024/01/17 10:23:07;;;;;;;4.45;2.95;;;6.00;73.40;;;;;;6074116;23;20021;-78
2024/01/17 10:25:42;;;;;;;4.38;3.17;;;6.00;72.90;;;;;;6120902;23;20013;-78
2024/01/17 10:28:09;;;;;;;3.45;2.85;;;6.00;72.90;;;;;;6121489;23;20009;-78
2024/01/17 10:30:37;;;;;;;4.63;3.20;;;6.00;72.80;;;;;;6123735;23;20001;-78
2024/01/17 10:33:06;;;;;;;6.88;3.33;;;6.00;73.00;;;;;;6149176;23;20032;-79
2024/01/17 10:35:32;;;;;;;3.72;3.20;;;5.90;73.50;;;;;;6149493;23;20049;-78
2024/01/17 10:37:58;;;;;;;4.10;3.05;;;6.00;73.10;;;;;;6123126;23;20096;-78
2024/01/17 10:40:24;;;;;;;4.15;2.35;;;6.00;73.60;;;;;;6147465;23;20013;-78
2024/01/17 10:43:09;;;;;;;4.60;2.78;;;6.00;73.50;;;;;;6123844;23;20017;-78
2024/01/17 10:45:37;;;;;;;4.25;3.15;;;6.00;74.30;;;;;;6147738;23;20029;-78
2024/01/17 10:48:05;;;;;;;4.07;3.00;;;6.00;74.30;;;;;;6149840;23;20025;-78
2024/01/17 10:50:31;;;;;;;3.75;2.83;;;6.00;74.00;;;;;;6151103;23;20028;-78
2024/01/17 10:53:05;;;;;;;4.25;2.80;;;6.00;73.90;;;;;;6127354;23;20020;-78
2024/01/17 10:55:35;;;;;;;3.60;2.72;;;6.00;74.20;;;;;;6126800;23;20033;-76
2024/01/17 10:58:07;;;;;;;5.80;3.00;;;6.00;74.20;;;;;;6152799;23;20017;-78
2024/01/17 11:00:40;;;;;;;3.25;2.60;;;6.00;74.40;;;;;;6153069;23;20025;-77
2024/01/17 11:03:09;;;;;;;4.78;3.33;;;6.00;73.80;;;;;;6152788;23;20033;-78
2024/01/17 11:05:48;;;;;;;3.78;2.67;;;6.00;73.30;;;;;;6152591;23;20124;-76
2024/01/17 11:08:18;;;;;;;4.32;2.78;;;6.00;73.40;;;;;;6152747;23;20547;-78
2024/01/17 11:10:45;;;;;;;6.38;2.80;;;6.00;73.30;;;;;;6151068;23;20044;-78
2024/01/17 11:13:14;;;;;;;4.22;2.55;;;5.90;73.20;;;;;;6152743;23;20009;-77
2024/01/17 11:15:43;;;;;;;4.03;2.95;;;6.00;73.20;;;;;;6153390;23;20089;-80
2024/01/17 11:18:10;;;;;;;3.97;2.72;;;6.00;73.20;;;;;;6151967;23;20021;-79
2024/01/17 11:20:39;;;;;;;4.45;2.80;;;6.00;73.30;;;;;;6150745;23;20018;-78
2024/01/17 11:23:07;;;;;;;3.60;2.92;;;5.90;73.20;;;;;;6151290;23;20014;-78
2024/01/17 11:25:47;;;;;;;4.95;2.85;;;6.00;73.30;;;;;;6152822;23;20014;-80
2024/01/17 11:28:16;;;;;;;3.22;2.65;;;6.00;72.90;;;;;;6153216;23;20013;-79
2024/01/17 11:30:57;;;;;;;5.60;2.80;;;6.00;72.60;;;;;;6127425;23;20028;-79
2024/01/17 11:33:25;;;;;;;4.03;2.33;;;5.90;72.70;;;;;;6128284;23;20026;-80
2024/01/17 11:35:53;;;;;;;4.38;2.90;;;6.00;72.80;;;;;;6103669;23;20028;-80
2024/01/17 11:38:25;;;;;;;3.63;2.22;;;5.90;72.60;;;;;;6152936;23;20104;-80
2024/01/17 11:40:52;;;;;;;6.85;2.83;;;5.90;73.30;;;;;;6153080;23;20036;-79
2024/01/17 11:43:19;;;;;;;2.90;2.47;;;5.90;72.90;;;;;;6152917;23;20356;-79
2024/01/17 11:45:50;;;;;;;4.53;3.10;;;5.90;72.70;;;;;;6153686;23;20476;-79
2024/01/17 11:48:33;;;;;;;3.30;2.50;;;5.90;72.50;;;;;;6151467;23;20029;-79
2024/01/17 11:51:05;;;;;;;3.80;2.10;;;5.90;72.70;;;;;;6153030;23;20022;-79
2024/01/17 11:53:33;;;;;;;3.67;2.95;;;5.90;72.80;;;;;;6153090;23;20076;-80
2024/01/17 11:56:04;;;;;;;2.45;2.13;;;5.90;72.20;;;;;;6152682;23;20025;-79
2024/01/17 11:58:53;;;;;;;3.72;2.38;;;5.90;73.10;;;;;;6152793;23;20361;-79
2024/01/17 12:01:22;;;;;;;4.32;2.92;;;5.90;72.60;;;;;;6151055;23;20010;-79
2024/01/17 12:03:49;;;;;;;3.45;2.22;;;5.90;72.90;;;;;;6153476;23;20056;-79
2024/01/17 12:06:16;;;;;;;4.53;2.53;;;5.80;72.20;;;;;;6126911;23;20160;-80
2024/01/17 12:08:44;;;;;;;5.50;2.80;;;5.80;71.80;;;;;;6127211;23;20469;-79
2024/01/17 12:11:10;;;;;;;3.95;2.38;;;5.80;71.60;;;;;;6153028;23;20013;-80
2024/01/17 12:13:37;;;;;;;3.53;2.80;;;5.80;71.50;;;;;;6153442;23;20019;-80
2024/01/17 12:16:04;;;;;;;3.30;2.45;;;5.80;71.90;;;;;;6152966;23;20014;-79
2024/01/17 12:18:31;;;;;;;3.13;2.25;;;5.80;71.70;;;;;;6152758;23;20452;-79
2024/01/17 12:21:02;;;;;;;6.15;2.70;;;5.80;71.30;;;;;;6150911;23;20017;-78
2024/01/17 12:23:30;;;;;;;3.25;2.70;;;5.80;71.40;;;;;;6151021;23;20017;-80
2024/01/17 12:25:58;;;;;;;4.03;2.95;;;5.80;71.30;;;;;;6126526;23;20071;-79
2024/01/17 12:28:26;;;;;;;2.53;2.30;;;5.80;71.40;;;;;;6152395;23;20017;-79
2024/01/17 12:31:03;;;;;;;3.88;2.55;;;5.80;71.30;;;;;;6102557;23;20584;-79
2024/01/17 12:33:37;;;;;;;3.30;2.40;;;5.80;71.30;;;;;;6152785;23;20028;-79
2024/01/17 12:36:05;;;;;;;3.47;2.22;;;5.80;71.20;;;;;;6152323;23;20032;-78
2024/01/17 12:38:33;;;;;;;3.30;2.28;;;5.80;71.20;;;;;;6126698;23;20014;-80
2024/01/17 12:41:01;;;;;;;3.42;1.90;;;5.70;70.70;;;;;;6152544;23;20072;-79
2024/01/17 12:43:29;;;;;;;3.42;2.45;;;5.70;70.50;;;;;;6152087;23;20016;-79
2024/01/17 12:45:55;;;;;;;3.42;2.35;;;5.70;70.20;;;;;;6151111;23;20096;-78
2024/01/17 12:48:22;;;;;;;3.38;2.45;;;5.70;70.60;;;;;;6152261;23;20381;-79
2024/01/17 12:50:54;;;;;;;2.42;2.13;;;5.70;70.20;;;;;;6152356;23;20025;-79
2024/01/17 12:53:29;;;;;;;2.70;2.08;;;5.70;70.10;;;;;;6153469;23;20044;-80
2024/01/17 12:55:58;;;;;;;2.40;2.20;;;5.70;69.80;;;;;;6152235;23;20025;-79
2024/01/17 12:58:25;;;;;;;3.05;2.22;;;5.70;70.40;;;;;;6126307;23;20096;-80